sensor_id;sensor_type;location;lat;lon;timestamp;P1;durP1;ratioP1;P2;durP2;ratioP2
13368;SDS011;6753;52.520;13.450;2022-12-13T13:43:00;104.05;;;59.33;;
13368;SDS011;6753;52.520;13.450;2022-12-13T13:43:27;110.32;;;62.60;;
13368;SDS011;6753;52.520;13.450;2022-12-13T13:43:38;109.63;;;62.90;;
13368;SDS011;6753;52.520;13.450;2022-12-13T13:43:49;111.10;;;63.67;;
13368;SDS011;6753;52.520;13.450;2022-12-13T13:44:00;111.93;;;64.30;;
13368;SDS011;6753;52.520;13.450;2022-12-13T13:44:54;102.22;;;63.95;;
13368;SDS011;6753;52.520;13.450;2022-12-13T13:45:27;97.68;;;63.67;;
13368;SDS011;6753;52.520;13.450;2022-12-13T13:46:17;101.97;;;63.72;;
13368;SDS011;6753;52.520;13.450;2022-12-13T13:46:29;103.13;;;63.22;;
13368;SDS011;6753;52.520;13.450;2022-12-13T13:47:30;100.35;;;62.92;;
13368;SDS011;6753;52.520;13.450;2022-12-13T13:47:53;222.93;;;167.48;;
13368;SDS011;6753;52.520;13.450;2022-12-13T13:48:18;145.27;;;95.20;;
13368;SDS011;6753;52.520;13.450;2022-12-13T13:48:42;539.53;;;395.48;;
13368;SDS011;6753;52.520;13.450;2022-12-13T13:49:08;293.60;;;192.27;;
13368;SDS011;6753;52.520;13.450;2022-12-13T13:49:22;360.65;;;243.40;;
13368;SDS011;6753;52.520;13.450;2022-12-13T13:49:34;401.13;;;284.03;;
13368;SDS011;6753;52.520;13.450;2022-12-13T13:49:52;261.67;;;173.65;;
13368;SDS011;6753;52.520;13.450;2022-12-13T13:50:21;210.05;;;140.63;;
13368;SDS011;6753;52.520;13.450;2022-12-13T13:52:00;207.10;;;151.48;;
13368;SDS011;6753;52.520;13.450;2022-12-13T13:52:26;219.00;;;167.77;;
13368;SDS011;6753;52.520;13.450;2022-12-13T13:52:49;226.85;;;170.60;;
13368;SDS011;6753;52.520;13.450;2022-12-13T13:53:21;240.25;;;175.23;;
13368;SDS011;6753;52.520;13.450;2022-12-13T13:54:58;328.73;;;238.65;;
13368;SDS011;6753;52.520;13.450;2022-12-13T13:55:37;360.83;;;285.85;;
13368;SDS011;6753;52.520;13.450;2022-12-13T13:55:58;231.15;;;165.40;;
13368;SDS011;6753;52.520;13.450;2022-12-13T13:56:32;219.63;;;161.45;;
13368;SDS011;6753;52.520;13.450;2022-12-13T13:57:52;291.48;;;223.05;;
13368;SDS011;6753;52.520;13.450;2022-12-13T13:58:44;238.32;;;182.63;;
13368;SDS011;6753;52.520;13.450;2022-12-13T14:00:09;345.88;;;263.17;;
13368;SDS011;6753;52.520;13.450;2022-12-13T14:00:31;325.40;;;245.32;;
13368;SDS011;6753;52.520;13.450;2022-12-13T14:02:15;308.90;;;233.55;;
13368;SDS011;6753;52.520;13.450;2022-12-13T14:05:06;344.92;;;262.83;;
13368;SDS011;6753;52.520;13.450;2022-12-13T14:06:33;276.67;;;209.05;;
13368;SDS011;6753;52.520;13.450;2022-12-13T14:07:59;274.60;;;203.23;;
13368;SDS011;6753;52.520;13.450;2022-12-13T14:08:38;274.88;;;201.77;;
13368;SDS011;6753;52.520;13.450;2022-12-13T14:09:02;332.65;;;250.13;;
13368;SDS011;6753;52.520;13.450;2022-12-13T14:10:21;326.40;;;246.48;;
13368;SDS011;6753;52.520;13.450;2022-12-13T14:10:51;273.02;;;208.57;;
13368;SDS011;6753;52.520;13.450;2022-12-13T14:11:38;274.40;;;207.25;;
13368;SDS011;6753;52.520;13.450;2022-12-13T14:13:09;329.30;;;247.88;;
13368;SDS011;6753;52.520;13.450;2022-12-13T14:16:47;525.10;;;458.27;;
13368;SDS011;6753;52.520;13.450;2022-12-13T14:17:32;501.17;;;440.40;;
13368;SDS011;6753;52.520;13.450;2022-12-13T14:18:19;657.20;;;588.53;;
13368;SDS011;6753;52.520;13.450;2022-12-13T14:19:09;610.42;;;545.33;;
13368;SDS011;6753;52.520;13.450;2022-12-13T14:20:31;495.70;;;419.50;;
13368;SDS011;6753;52.520;13.450;2022-12-13T14:20:56;477.35;;;395.95;;
13368;SDS011;6753;52.520;13.450;2022-12-13T14:21:18;461.83;;;375.80;;
13368;SDS011;6753;52.520;13.450;2022-12-13T14:21:37;462.42;;;377.58;;
13368;SDS011;6753;52.520;13.450;2022-12-13T14:21:57;474.83;;;399.35;;
13368;SDS011;6753;52.520;13.450;2022-12-13T14:22:28;504.52;;;436.80;;
13368;SDS011;6753;52.520;13.450;2022-12-13T14:22:47;494.73;;;420.08;;
13368;SDS011;6753;52.520;13.450;2022-12-13T14:23:04;495.13;;;420.15;;
13368;SDS011;6753;52.520;13.450;2022-12-13T14:23:26;500.67;;;428.48;;
13368;SDS011;6753;52.520;13.450;2022-12-13T14:23:52;500.10;;;429.08;;
13368;SDS011;6753;52.520;13.450;2022-12-13T14:24:14;484.27;;;408.88;;
13368;SDS011;6753;52.520;13.450;2022-12-13T14:24:34;461.08;;;378.83;;
13368;SDS011;6753;52.520;13.450;2022-12-13T14:25:16;468.88;;;388.67;;
13368;SDS011;6753;52.520;13.450;2022-12-13T14:25:40;508.48;;;445.55;;
13368;SDS011;6753;52.520;13.450;2022-12-13T14:26:04;511.42;;;454.08;;
13368;SDS011;6753;52.520;13.450;2022-12-13T14:26:44;514.42;;;457.52;;
13368;SDS011;6753;52.520;13.450;2022-12-13T14:27:08;538.65;;;479.88;;
13368;SDS011;6753;52.520;13.450;2022-12-13T14:27:31;518.33;;;461.10;;
13368;SDS011;6753;52.520;13.450;2022-12-13T14:27:52;499.95;;;435.15;;
13368;SDS011;6753;52.520;13.450;2022-12-13T14:28:13;478.67;;;406.05;;
13368;SDS011;6753;52.520;13.450;2022-12-13T14:28:32;473.58;;;397.85;;
13368;SDS011;6753;52.520;13.450;2022-12-13T14:28:54;481.60;;;410.65;;
13368;SDS011;6753;52.520;13.450;2022-12-13T14:29:09;495.10;;;427.63;;
13368;SDS011;6753;52.520;13.450;2022-12-13T14:29:25;509.73;;;450.30;;
13368;SDS011;6753;52.520;13.450;2022-12-13T14:29:38;509.48;;;452.95;;
13368;SDS011;6753;52.520;13.450;2022-12-13T14:29:52;518.08;;;461.10;;
13368;SDS011;6753;52.520;13.450;2022-12-13T14:30:04;521.50;;;464.40;;
13368;SDS011;6753;52.520;13.450;2022-12-13T14:30:21;516.75;;;460.02;;
13368;SDS011;6753;52.520;13.450;2022-12-13T14:30:34;519.00;;;462.13;;
13368;SDS011;6753;52.520;13.450;2022-12-13T14:30:48;516.08;;;459.20;;
13368;SDS011;6753;52.520;13.450;2022-12-13T14:30:59;510.90;;;454.35;;
13368;SDS011;6753;52.520;13.450;2022-12-13T14:31:12;514.47;;;457.40;;
13368;SDS011;6753;52.520;13.450;2022-12-13T14:31:27;520.63;;;463.15;;
13368;SDS011;6753;52.520;13.450;2022-12-13T14:31:45;513.53;;;456.63;;
13368;SDS011;6753;52.520;13.450;2022-12-13T14:31:57;519.42;;;462.17;;
13368;SDS011;6753;52.520;13.450;2022-12-13T14:32:08;500.77;;;441.90;;
13368;SDS011;6753;52.520;13.450;2022-12-13T14:32:27;484.23;;;414.85;;
13368;SDS011;6753;52.520;13.450;2022-12-13T14:32:41;474.25;;;398.55;;
13368;SDS011;6753;52.520;13.450;2022-12-13T14:32:52;464.17;;;380.00;;
13368;SDS011;6753;52.520;13.450;2022-12-13T14:33:03;464.45;;;379.73;;
13368;SDS011;6753;52.520;13.450;2022-12-13T14:33:16;467.83;;;386.35;;
13368;SDS011;6753;52.520;13.450;2022-12-13T14:33:29;471.85;;;392.50;;
13368;SDS011;6753;52.520;13.450;2022-12-13T14:33:42;472.98;;;394.80;;
13368;SDS011;6753;52.520;13.450;2022-12-13T14:33:55;482.60;;;412.90;;
13368;SDS011;6753;52.520;13.450;2022-12-13T14:34:14;492.25;;;426.48;;
13368;SDS011;6753;52.520;13.450;2022-12-13T14:34:30;495.20;;;432.08;;
13368;SDS011;6753;52.520;13.450;2022-12-13T14:34:42;503.05;;;443.85;;
13368;SDS011;6753;52.520;13.450;2022-12-13T14:34:55;504.63;;;442.98;;
13368;SDS011;6753;52.520;13.450;2022-12-13T14:35:19;505.15;;;443.23;;
13368;SDS011;6753;52.520;13.450;2022-12-13T14:35:32;511.25;;;454.55;;
13368;SDS011;6753;52.520;13.450;2022-12-13T14:35:48;511.60;;;453.55;;
13368;SDS011;6753;52.520;13.450;2022-12-13T14:36:02;500.77;;;440.38;;
13368;SDS011;6753;52.520;13.450;2022-12-13T14:36:14;490.40;;;424.15;;
13368;SDS011;6753;52.520;13.450;2022-12-13T14:36:28;479.15;;;406.67;;
13368;SDS011;6753;52.520;13.450;2022-12-13T14:36:41;464.52;;;383.23;;
13368;SDS011;6753;52.520;13.450;2022-12-13T14:36:55;459.48;;;373.95;;
13368;SDS011;6753;52.520;13.450;2022-12-13T14:37:18;466.88;;;388.13;;
13368;SDS011;6753;52.520;13.450;2022-12-13T14:37:31;473.83;;;401.30;;
13368;SDS011;6753;52.520;13.450;2022-12-13T14:37:49;480.65;;;411.38;;
13368;SDS011;6753;52.520;13.450;2022-12-13T14:38:05;476.15;;;403.92;;
13368;SDS011;6753;52.520;13.450;2022-12-13T14:38:32;467.77;;;392.40;;
13368;SDS011;6753;52.520;13.450;2022-12-13T14:38:43;467.80;;;390.98;;
13368;SDS011;6753;52.520;13.450;2022-12-13T14:39:00;463.98;;;389.10;;
13368;SDS011;6753;52.520;13.450;2022-12-13T14:39:14;476.58;;;403.52;;
13368;SDS011;6753;52.520;13.450;2022-12-13T14:39:26;486.08;;;415.27;;
13368;SDS011;6753;52.520;13.450;2022-12-13T14:39:42;489.27;;;419.95;;
13368;SDS011;6753;52.520;13.450;2022-12-13T14:39:54;487.38;;;416.48;;
13368;SDS011;6753;52.520;13.450;2022-12-13T14:40:21;477.83;;;403.30;;
13368;SDS011;6753;52.520;13.450;2022-12-13T14:40:36;454.05;;;373.23;;
13368;SDS011;6753;52.520;13.450;2022-12-13T14:40:57;440.40;;;356.80;;
13368;SDS011;6753;52.520;13.450;2022-12-13T14:41:12;436.48;;;353.52;;
13368;SDS011;6753;52.520;13.450;2022-12-13T14:41:26;434.98;;;350.98;;
13368;SDS011;6753;52.520;13.450;2022-12-13T14:41:43;429.10;;;343.67;;
13368;SDS011;6753;52.520;13.450;2022-12-13T14:41:56;429.40;;;344.20;;
13368;SDS011;6753;52.520;13.450;2022-12-13T14:42:18;422.63;;;340.05;;
13368;SDS011;6753;52.520;13.450;2022-12-13T14:42:33;411.92;;;331.50;;
13368;SDS011;6753;52.520;13.450;2022-12-13T14:42:46;404.90;;;327.38;;
13368;SDS011;6753;52.520;13.450;2022-12-13T14:43:02;393.35;;;314.20;;
13368;SDS011;6753;52.520;13.450;2022-12-13T14:43:21;393.52;;;312.55;;
13368;SDS011;6753;52.520;13.450;2022-12-13T14:43:34;397.23;;;316.55;;
13368;SDS011;6753;52.520;13.450;2022-12-13T14:43:45;408.20;;;326.45;;
13368;SDS011;6753;52.520;13.450;2022-12-13T14:44:31;445.70;;;363.95;;
13368;SDS011;6753;52.520;13.450;2022-12-13T14:44:43;443.00;;;361.30;;
13368;SDS011;6753;52.520;13.450;2022-12-13T14:44:54;439.30;;;354.00;;
13368;SDS011;6753;52.520;13.450;2022-12-13T14:45:12;437.83;;;348.80;;
13368;SDS011;6753;52.520;13.450;2022-12-13T14:45:26;429.80;;;341.55;;
13368;SDS011;6753;52.520;13.450;2022-12-13T14:45:39;426.92;;;337.63;;
13368;SDS011;6753;52.520;13.450;2022-12-13T14:45:53;423.65;;;334.30;;
13368;SDS011;6753;52.520;13.450;2022-12-13T14:46:06;420.17;;;332.77;;
13368;SDS011;6753;52.520;13.450;2022-12-13T14:46:17;422.63;;;333.40;;
13368;SDS011;6753;52.520;13.450;2022-12-13T14:46:29;422.50;;;333.20;;
13368;SDS011;6753;52.520;13.450;2022-12-13T14:46:47;424.33;;;333.15;;
13368;SDS011;6753;52.520;13.450;2022-12-13T14:47:06;419.75;;;332.80;;
13368;SDS011;6753;52.520;13.450;2022-12-13T14:47:17;423.42;;;333.52;;
13368;SDS011;6753;52.520;13.450;2022-12-13T14:47:29;423.05;;;331.92;;
13368;SDS011;6753;52.520;13.450;2022-12-13T14:47:41;424.02;;;333.70;;
13368;SDS011;6753;52.520;13.450;2022-12-13T14:47:52;426.95;;;335.33;;
13368;SDS011;6753;52.520;13.450;2022-12-13T14:48:05;429.85;;;335.45;;
13368;SDS011;6753;52.520;13.450;2022-12-13T14:48:21;427.27;;;334.58;;
13368;SDS011;6753;52.520;13.450;2022-12-13T14:48:35;426.08;;;333.88;;
13368;SDS011;6753;52.520;13.450;2022-12-13T14:48:53;422.88;;;329.23;;
13368;SDS011;6753;52.520;13.450;2022-12-13T14:49:04;422.48;;;327.70;;
13368;SDS011;6753;52.520;13.450;2022-12-13T14:49:15;418.60;;;323.40;;
13368;SDS011;6753;52.520;13.450;2022-12-13T14:49:27;413.67;;;318.85;;
13368;SDS011;6753;52.520;13.450;2022-12-13T14:49:43;413.45;;;317.55;;
13368;SDS011;6753;52.520;13.450;2022-12-13T14:49:55;412.55;;;318.00;;
13368;SDS011;6753;52.520;13.450;2022-12-13T14:50:07;411.42;;;318.48;;
13368;SDS011;6753;52.520;13.450;2022-12-13T14:50:22;414.48;;;319.60;;
13368;SDS011;6753;52.520;13.450;2022-12-13T14:50:34;414.98;;;320.80;;
13368;SDS011;6753;52.520;13.450;2022-12-13T14:50:56;418.90;;;323.58;;
13368;SDS011;6753;52.520;13.450;2022-12-13T14:51:28;422.17;;;325.53;;
13368;SDS011;6753;52.520;13.450;2022-12-13T14:51:42;423.60;;;330.90;;
13368;SDS011;6753;52.520;13.450;2022-12-13T14:51:54;417.13;;;326.30;;
13368;SDS011;6753;52.520;13.450;2022-12-13T14:52:15;413.40;;;323.88;;
13368;SDS011;6753;52.520;13.450;2022-12-13T14:52:28;414.20;;;322.58;;
13368;SDS011;6753;52.520;13.450;2022-12-13T14:52:44;415.23;;;323.08;;
13368;SDS011;6753;52.520;13.450;2022-12-13T14:52:57;415.23;;;323.88;;
13368;SDS011;6753;52.520;13.450;2022-12-13T14:53:17;412.75;;;321.60;;
13368;SDS011;6753;52.520;13.450;2022-12-13T14:53:34;408.27;;;323.65;;
13368;SDS011;6753;52.520;13.450;2022-12-13T14:53:50;411.35;;;325.65;;
13368;SDS011;6753;52.520;13.450;2022-12-13T14:54:03;411.55;;;326.20;;
13368;SDS011;6753;52.520;13.450;2022-12-13T14:54:18;406.17;;;322.65;;
13368;SDS011;6753;52.520;13.450;2022-12-13T14:54:30;401.20;;;316.63;;
13368;SDS011;6753;52.520;13.450;2022-12-13T14:54:49;396.40;;;312.65;;
13368;SDS011;6753;52.520;13.450;2022-12-13T14:55:03;398.30;;;310.67;;
13368;SDS011;6753;52.520;13.450;2022-12-13T14:55:22;398.40;;;310.60;;
13368;SDS011;6753;52.520;13.450;2022-12-13T14:55:35;393.60;;;303.83;;
13368;SDS011;6753;52.520;13.450;2022-12-13T14:56:00;388.55;;;297.33;;
13368;SDS011;6753;52.520;13.450;2022-12-13T14:56:13;371.02;;;283.95;;
13368;SDS011;6753;52.520;13.450;2022-12-13T14:56:24;358.02;;;276.65;;
13368;SDS011;6753;52.520;13.450;2022-12-13T14:56:46;357.83;;;275.27;;
13368;SDS011;6753;52.520;13.450;2022-12-13T14:57:03;353.02;;;271.48;;
13368;SDS011;6753;52.520;13.450;2022-12-13T14:57:15;353.92;;;272.58;;
13368;SDS011;6753;52.520;13.450;2022-12-13T14:57:30;353.90;;;272.35;;
13368;SDS011;6753;52.520;13.450;2022-12-13T14:57:42;352.00;;;272.73;;
13368;SDS011;6753;52.520;13.450;2022-12-13T14:58:02;354.80;;;273.80;;
13368;SDS011;6753;52.520;13.450;2022-12-13T14:58:25;362.65;;;274.05;;
13368;SDS011;6753;52.520;13.450;2022-12-13T14:58:37;368.73;;;275.48;;
13368;SDS011;6753;52.520;13.450;2022-12-13T14:58:51;366.00;;;272.95;;
13368;SDS011;6753;52.520;13.450;2022-12-13T14:59:10;360.42;;;271.30;;
13368;SDS011;6753;52.520;13.450;2022-12-13T14:59:22;349.23;;;266.58;;
13368;SDS011;6753;52.520;13.450;2022-12-13T14:59:34;342.70;;;263.52;;
13368;SDS011;6753;52.520;13.450;2022-12-13T14:59:45;343.80;;;264.52;;
13368;SDS011;6753;52.520;13.450;2022-12-13T14:59:57;345.08;;;264.38;;
13368;SDS011;6753;52.520;13.450;2022-12-13T15:00:20;344.85;;;262.60;;
13368;SDS011;6753;52.520;13.450;2022-12-13T15:00:37;349.77;;;262.48;;
13368;SDS011;6753;52.520;13.450;2022-12-13T15:00:49;345.95;;;260.67;;
13368;SDS011;6753;52.520;13.450;2022-12-13T15:00:59;342.15;;;259.50;;
13368;SDS011;6753;52.520;13.450;2022-12-13T15:01:23;339.20;;;260.38;;
13368;SDS011;6753;52.520;13.450;2022-12-13T15:01:36;339.77;;;261.13;;
13368;SDS011;6753;52.520;13.450;2022-12-13T15:01:53;339.42;;;261.95;;
13368;SDS011;6753;52.520;13.450;2022-12-13T15:02:12;344.10;;;264.52;;
13368;SDS011;6753;52.520;13.450;2022-12-13T15:02:25;345.77;;;266.90;;
13368;SDS011;6753;52.520;13.450;2022-12-13T15:02:48;348.45;;;269.27;;
13368;SDS011;6753;52.520;13.450;2022-12-13T15:03:00;345.17;;;268.88;;
13368;SDS011;6753;52.520;13.450;2022-12-13T15:03:19;339.85;;;264.83;;
13368;SDS011;6753;52.520;13.450;2022-12-13T15:03:31;340.52;;;264.70;;
13368;SDS011;6753;52.520;13.450;2022-12-13T15:03:44;341.75;;;262.63;;
13368;SDS011;6753;52.520;13.450;2022-12-13T15:04:26;348.20;;;266.40;;
13368;SDS011;6753;52.520;13.450;2022-12-13T15:04:38;344.50;;;265.48;;
13368;SDS011;6753;52.520;13.450;2022-12-13T15:04:51;340.20;;;262.73;;
13368;SDS011;6753;52.520;13.450;2022-12-13T15:05:03;336.92;;;261.27;;
13368;SDS011;6753;52.520;13.450;2022-12-13T15:05:19;335.55;;;261.63;;
13368;SDS011;6753;52.520;13.450;2022-12-13T15:05:35;332.70;;;260.55;;
13368;SDS011;6753;52.520;13.450;2022-12-13T15:05:51;337.73;;;262.67;;
13368;SDS011;6753;52.520;13.450;2022-12-13T15:06:05;342.35;;;262.67;;
13368;SDS011;6753;52.520;13.450;2022-12-13T15:06:16;340.15;;;262.35;;
13368;SDS011;6753;52.520;13.450;2022-12-13T15:06:29;340.33;;;261.48;;
13368;SDS011;6753;52.520;13.450;2022-12-13T15:06:40;333.73;;;257.70;;
13368;SDS011;6753;52.520;13.450;2022-12-13T15:06:53;333.17;;;255.13;;
13368;SDS011;6753;52.520;13.450;2022-12-13T15:07:09;324.80;;;251.40;;
13368;SDS011;6753;52.520;13.450;2022-12-13T15:07:27;319.17;;;245.73;;
13368;SDS011;6753;52.520;13.450;2022-12-13T15:07:42;321.90;;;245.40;;
13368;SDS011;6753;52.520;13.450;2022-12-13T15:07:52;320.45;;;243.93;;
13368;SDS011;6753;52.520;13.450;2022-12-13T15:08:06;317.92;;;240.80;;
13368;SDS011;6753;52.520;13.450;2022-12-13T15:08:18;323.77;;;242.80;;
13368;SDS011;6753;52.520;13.450;2022-12-13T15:08:29;319.35;;;238.65;;
13368;SDS011;6753;52.520;13.450;2022-12-13T15:08:43;312.70;;;234.85;;
13368;SDS011;6753;52.520;13.450;2022-12-13T15:08:55;308.50;;;233.75;;
13368;SDS011;6753;52.520;13.450;2022-12-13T15:09:08;307.33;;;232.55;;
13368;SDS011;6753;52.520;13.450;2022-12-13T15:09:21;299.60;;;230.48;;
13368;SDS011;6753;52.520;13.450;2022-12-13T15:09:34;300.00;;;232.43;;
13368;SDS011;6753;52.520;13.450;2022-12-13T15:09:48;301.60;;;233.77;;
13368;SDS011;6753;52.520;13.450;2022-12-13T15:10:03;302.40;;;234.98;;
13368;SDS011;6753;52.520;13.450;2022-12-13T15:10:27;307.55;;;238.25;;
13368;SDS011;6753;52.520;13.450;2022-12-13T15:10:46;309.08;;;239.55;;
13368;SDS011;6753;52.520;13.450;2022-12-13T15:10:59;309.17;;;238.73;;
13368;SDS011;6753;52.520;13.450;2022-12-13T15:11:10;309.40;;;239.40;;
13368;SDS011;6753;52.520;13.450;2022-12-13T15:11:22;309.02;;;237.63;;
13368;SDS011;6753;52.520;13.450;2022-12-13T15:11:34;306.63;;;233.40;;
13368;SDS011;6753;52.520;13.450;2022-12-13T15:11:45;306.10;;;230.05;;
13368;SDS011;6753;52.520;13.450;2022-12-13T15:11:56;303.33;;;227.93;;
13368;SDS011;6753;52.520;13.450;2022-12-13T15:12:10;303.35;;;224.68;;
13368;SDS011;6753;52.520;13.450;2022-12-13T15:12:23;301.55;;;223.45;;
13368;SDS011;6753;52.520;13.450;2022-12-13T15:12:34;300.17;;;225.07;;
13368;SDS011;6753;52.520;13.450;2022-12-13T15:12:51;297.52;;;226.15;;
13368;SDS011;6753;52.520;13.450;2022-12-13T15:13:03;296.80;;;226.75;;
13368;SDS011;6753;52.520;13.450;2022-12-13T15:13:19;296.17;;;227.32;;
13368;SDS011;6753;52.520;13.450;2022-12-13T15:13:38;294.20;;;227.23;;
13368;SDS011;6753;52.520;13.450;2022-12-13T15:13:51;291.92;;;225.75;;
13368;SDS011;6753;52.520;13.450;2022-12-13T15:14:01;292.53;;;225.57;;
13368;SDS011;6753;52.520;13.450;2022-12-13T15:14:14;287.42;;;223.80;;
13368;SDS011;6753;52.520;13.450;2022-12-13T15:14:27;286.27;;;221.38;;
13368;SDS011;6753;52.520;13.450;2022-12-13T15:14:40;285.70;;;219.45;;
13368;SDS011;6753;52.520;13.450;2022-12-13T15:14:55;288.48;;;218.10;;
13368;SDS011;6753;52.520;13.450;2022-12-13T15:15:13;290.63;;;218.38;;
13368;SDS011;6753;52.520;13.450;2022-12-13T15:15:31;291.23;;;219.70;;
13368;SDS011;6753;52.520;13.450;2022-12-13T15:15:44;296.17;;;224.02;;
13368;SDS011;6753;52.520;13.450;2022-12-13T15:16:02;294.83;;;224.50;;
13368;SDS011;6753;52.520;13.450;2022-12-13T15:16:21;291.20;;;222.23;;
13368;SDS011;6753;52.520;13.450;2022-12-13T15:16:34;289.48;;;220.48;;
13368;SDS011;6753;52.520;13.450;2022-12-13T15:16:46;282.75;;;215.95;;
13368;SDS011;6753;52.520;13.450;2022-12-13T15:16:58;284.30;;;216.35;;
13368;SDS011;6753;52.520;13.450;2022-12-13T15:17:20;295.70;;;224.98;;
13368;SDS011;6753;52.520;13.450;2022-12-13T15:17:41;302.48;;;229.52;;
13368;SDS011;6753;52.520;13.450;2022-12-13T15:18:05;299.13;;;226.60;;
13368;SDS011;6753;52.520;13.450;2022-12-13T15:18:26;282.73;;;217.57;;
13368;SDS011;6753;52.520;13.450;2022-12-13T15:18:37;286.65;;;219.85;;
13368;SDS011;6753;52.520;13.450;2022-12-13T15:18:48;288.50;;;222.07;;
13368;SDS011;6753;52.520;13.450;2022-12-13T15:19:13;292.73;;;223.20;;
13368;SDS011;6753;52.520;13.450;2022-12-13T15:19:27;286.33;;;217.20;;
13368;SDS011;6753;52.520;13.450;2022-12-13T15:19:40;290.52;;;220.15;;
13368;SDS011;6753;52.520;13.450;2022-12-13T15:19:51;301.73;;;229.18;;
13368;SDS011;6753;52.520;13.450;2022-12-13T15:20:10;310.40;;;236.25;;
13368;SDS011;6753;52.520;13.450;2022-12-13T15:20:31;348.40;;;273.08;;
13368;SDS011;6753;52.520;13.450;2022-12-13T15:20:44;337.60;;;265.10;;
13368;SDS011;6753;52.520;13.450;2022-12-13T15:20:57;329.23;;;258.90;;
13368;SDS011;6753;52.520;13.450;2022-12-13T15:21:19;311.55;;;243.82;;
13368;SDS011;6753;52.520;13.450;2022-12-13T15:21:32;283.73;;;218.43;;
13368;SDS011;6753;52.520;13.450;2022-12-13T15:21:52;286.63;;;220.43;;
13368;SDS011;6753;52.520;13.450;2022-12-13T15:22:04;296.05;;;227.20;;
13368;SDS011;6753;52.520;13.450;2022-12-13T15:22:17;326.33;;;251.82;;
13368;SDS011;6753;52.520;13.450;2022-12-13T15:22:28;312.83;;;242.75;;
13368;SDS011;6753;52.520;13.450;2022-12-13T15:22:39;303.48;;;235.57;;
13368;SDS011;6753;52.520;13.450;2022-12-13T15:22:55;306.02;;;238.68;;
13368;SDS011;6753;52.520;13.450;2022-12-13T15:23:10;315.75;;;243.75;;
13368;SDS011;6753;52.520;13.450;2022-12-13T15:23:22;316.33;;;243.40;;
13368;SDS011;6753;52.520;13.450;2022-12-13T15:23:36;334.05;;;255.32;;
13368;SDS011;6753;52.520;13.450;2022-12-13T15:23:48;355.05;;;270.02;;
13368;SDS011;6753;52.520;13.450;2022-12-13T15:24:02;350.35;;;268.35;;
13368;SDS011;6753;52.520;13.450;2022-12-13T15:24:14;347.33;;;268.15;;
13368;SDS011;6753;52.520;13.450;2022-12-13T15:24:25;312.17;;;245.38;;
13368;SDS011;6753;52.520;13.450;2022-12-13T15:24:39;301.98;;;236.30;;
13368;SDS011;6753;52.520;13.450;2022-12-13T15:24:56;332.33;;;250.23;;
13368;SDS011;6753;52.520;13.450;2022-12-13T15:25:10;376.15;;;284.58;;
13368;SDS011;6753;52.520;13.450;2022-12-13T15:25:22;381.05;;;293.08;;
13368;SDS011;6753;52.520;13.450;2022-12-13T15:25:33;390.98;;;301.98;;
13368;SDS011;6753;52.520;13.450;2022-12-13T15:25:44;412.75;;;324.13;;
13368;SDS011;6753;52.520;13.450;2022-12-13T15:25:57;453.80;;;367.45;;
13368;SDS011;6753;52.520;13.450;2022-12-13T15:26:14;501.27;;;420.60;;
13368;SDS011;6753;52.520;13.450;2022-12-13T15:26:26;543.75;;;468.38;;
13368;SDS011;6753;52.520;13.450;2022-12-13T15:26:38;495.77;;;414.73;;
13368;SDS011;6753;52.520;13.450;2022-12-13T15:26:49;530.08;;;458.42;;
13368;SDS011;6753;52.520;13.450;2022-12-13T15:27:00;538.92;;;468.73;;
13368;SDS011;6753;52.520;13.450;2022-12-13T15:27:14;526.53;;;452.10;;
13368;SDS011;6753;52.520;13.450;2022-12-13T15:27:25;521.55;;;445.13;;
13368;SDS011;6753;52.520;13.450;2022-12-13T15:27:37;518.60;;;441.75;;
13368;SDS011;6753;52.520;13.450;2022-12-13T15:27:48;502.88;;;421.15;;
13368;SDS011;6753;52.520;13.450;2022-12-13T15:28:01;486.40;;;396.08;;
13368;SDS011;6753;52.520;13.450;2022-12-13T15:28:14;479.67;;;388.88;;
13368;SDS011;6753;52.520;13.450;2022-12-13T15:28:27;475.42;;;382.23;;
13368;SDS011;6753;52.520;13.450;2022-12-13T15:28:42;469.35;;;373.05;;
13368;SDS011;6753;52.520;13.450;2022-12-13T15:28:55;464.45;;;369.05;;
13368;SDS011;6753;52.520;13.450;2022-12-13T15:29:07;463.58;;;367.08;;
13368;SDS011;6753;52.520;13.450;2022-12-13T15:29:24;452.30;;;354.60;;
13368;SDS011;6753;52.520;13.450;2022-12-13T15:29:37;455.77;;;359.25;;
13368;SDS011;6753;52.520;13.450;2022-12-13T15:29:49;456.23;;;359.50;;
13368;SDS011;6753;52.520;13.450;2022-12-13T15:30:01;455.02;;;357.83;;
13368;SDS011;6753;52.520;13.450;2022-12-13T15:30:12;457.90;;;361.92;;
13368;SDS011;6753;52.520;13.450;2022-12-13T15:30:25;459.80;;;363.98;;
13368;SDS011;6753;52.520;13.450;2022-12-13T15:30:38;454.55;;;358.65;;
13368;SDS011;6753;52.520;13.450;2022-12-13T15:30:49;450.77;;;355.52;;
13368;SDS011;6753;52.520;13.450;2022-12-13T15:31:00;450.65;;;355.25;;
13368;SDS011;6753;52.520;13.450;2022-12-13T15:31:14;453.00;;;357.90;;
13368;SDS011;6753;52.520;13.450;2022-12-13T15:31:26;454.38;;;360.05;;
13368;SDS011;6753;52.520;13.450;2022-12-13T15:31:37;461.20;;;367.85;;
13368;SDS011;6753;52.520;13.450;2022-12-13T15:31:49;470.05;;;378.45;;
13368;SDS011;6753;52.520;13.450;2022-12-13T15:32:00;474.75;;;382.90;;
13368;SDS011;6753;52.520;13.450;2022-12-13T15:32:13;475.15;;;382.70;;
13368;SDS011;6753;52.520;13.450;2022-12-13T15:32:28;473.25;;;379.80;;
13368;SDS011;6753;52.520;13.450;2022-12-13T15:32:51;471.30;;;376.50;;
13368;SDS011;6753;52.520;13.450;2022-12-13T15:33:16;477.00;;;387.40;;
13368;SDS011;6753;52.520;13.450;2022-12-13T15:33:28;492.02;;;403.77;;
13368;SDS011;6753;52.520;13.450;2022-12-13T15:33:41;496.75;;;408.77;;
13368;SDS011;6753;52.520;13.450;2022-12-13T15:33:52;495.95;;;407.85;;
13368;SDS011;6753;52.520;13.450;2022-12-13T15:34:19;494.67;;;404.67;;
13368;SDS011;6753;52.520;13.450;2022-12-13T15:34:32;491.25;;;397.52;;
13368;SDS011;6753;52.520;13.450;2022-12-13T15:34:46;497.02;;;403.80;;
13368;SDS011;6753;52.520;13.450;2022-12-13T15:35:00;498.05;;;407.20;;
13368;SDS011;6753;52.520;13.450;2022-12-13T15:35:24;500.90;;;414.20;;
13368;SDS011;6753;52.520;13.450;2022-12-13T15:35:35;499.75;;;411.02;;
13368;SDS011;6753;52.520;13.450;2022-12-13T15:35:47;494.75;;;406.63;;
13368;SDS011;6753;52.520;13.450;2022-12-13T15:36:12;487.52;;;398.35;;
13368;SDS011;6753;52.520;13.450;2022-12-13T15:36:25;486.15;;;397.15;;
13368;SDS011;6753;52.520;13.450;2022-12-13T15:36:37;487.95;;;398.88;;
13368;SDS011;6753;52.520;13.450;2022-12-13T15:36:48;492.10;;;400.15;;
13368;SDS011;6753;52.520;13.450;2022-12-13T15:37:00;494.55;;;402.70;;